sensor_id;sensor_type;location;lat;lon;timestamp;temperature;humidity
18974;DHT22;9621;48.690;9.466;2023-08-17T00:00:55;17.20;99.90
18974;DHT22;9621;48.690;9.466;2023-08-17T00:03:22;17.10;99.90
18974;DHT22;9621;48.690;9.466;2023-08-17T00:05:49;17.10;99.90
18974;DHT22;9621;48.690;9.466;2023-08-17T00:08:16;17.10;99.90
18974;DHT22;9621;48.690;9.466;2023-08-17T00:10:43;17.10;99.90
18974;DHT22;9621;48.690;9.466;2023-08-17T00:13:10;17.10;99.90
18974;DHT22;9621;48.690;9.466;2023-08-17T00:15:38;17.00;99.90
18974;DHT22;9621;48.690;9.466;2023-08-17T00:18:05;17.00;99.90
18974;DHT22;9621;48.690;9.466;2023-08-17T00:20:32;17.00;99.90
18974;DHT22;9621;48.690;9.466;2023-08-17T00:22:59;16.90;99.90
18974;DHT22;9621;48.690;9.466;2023-08-17T00:25:26;16.90;99.90
18974;DHT22;9621;48.690;9.466;2023-08-17T00:27:53;16.90;99.90
18974;DHT22;9621;48.690;9.466;2023-08-17T00:30:20;16.80;99.90
18974;DHT22;9621;48.690;9.466;2023-08-17T00:32:48;16.90;99.90
18974;DHT22;9621;48.690;9.466;2023-08-17T00:35:15;16.80;99.90
18974;DHT22;9621;48.690;9.466;2023-08-17T00:37:42;16.70;99.90
18974;DHT22;9621;48.690;9.466;2023-08-17T00:40:10;16.70;99.90
18974;DHT22;9621;48.690;9.466;2023-08-17T00:42:37;16.60;99.90
18974;DHT22;9621;48.690;9.466;2023-08-17T00:45:05;16.60;99.90
18974;DHT22;9621;48.690;9.466;2023-08-17T00:47:32;16.50;99.90
18974;DHT22;9621;48.690;9.466;2023-08-17T00:50:00;16.50;99.90
18974;DHT22;9621;48.690;9.466;2023-08-17T00:52:28;16.50;99.90
18974;DHT22;9621;48.690;9.466;2023-08-17T00:54:55;16.40;99.90
18974;DHT22;9621;48.690;9.466;2023-08-17T00:57:23;16.40;99.90
18974;DHT22;9621;48.690;9.466;2023-08-17T00:59:50;16.40;99.90
18974;DHT22;9621;48.690;9.466;2023-08-17T01:02:18;16.30;99.90
18974;DHT22;9621;48.690;9.466;2023-08-17T01:04:45;16.30;99.90
18974;DHT22;9621;48.690;9.466;2023-08-17T01:07:13;16.30;99.90
18974;DHT22;9621;48.690;9.466;2023-08-17T01:09:40;16.20;99.90
18974;DHT22;9621;48.690;9.466;2023-08-17T01:12:19;16.20;99.90
18974;DHT22;9621;48.690;9.466;2023-08-17T01:14:54;16.20;99.90
18974;DHT22;9621;48.690;9.466;2023-08-17T01:17:26;16.20;99.90
18974;DHT22;9621;48.690;9.466;2023-08-17T01:19:55;16.20;99.90
18974;DHT22;9621;48.690;9.466;2023-08-17T01:22:24;16.10;99.90
18974;DHT22;9621;48.690;9.466;2023-08-17T01:24:56;16.10;99.90
18974;DHT22;9621;48.690;9.466;2023-08-17T01:27:23;16.00;99.90
18974;DHT22;9621;48.690;9.466;2023-08-17T01:29:51;16.00;99.90
18974;DHT22;9621;48.690;9.466;2023-08-17T01:32:25;16.00;99.90
18974;DHT22;9621;48.690;9.466;2023-08-17T01:34:57;16.00;99.90
18974;DHT22;9621;48.690;9.466;2023-08-17T01:37:28;16.00;99.90
18974;DHT22;9621;48.690;9.466;2023-08-17T01:39:58;15.90;99.90
18974;DHT22;9621;48.690;9.466;2023-08-17T01:42:25;15.90;99.90
18974;DHT22;9621;48.690;9.466;2023-08-17T01:44:53;15.90;99.90
18974;DHT22;9621;48.690;9.466;2023-08-17T01:47:21;15.90;99.90
18974;DHT22;9621;48.690;9.466;2023-08-17T01:49:48;15.90;99.90
18974;DHT22;9621;48.690;9.466;2023-08-17T01:52:15;15.80;99.90
18974;DHT22;9621;48.690;9.466;2023-08-17T01:54:42;15.80;99.90
18974;DHT22;9621;48.690;9.466;2023-08-17T01:57:10;15.80;99.90
18974;DHT22;9621;48.690;9.466;2023-08-17T01:59:37;15.80;99.90
18974;DHT22;9621;48.690;9.466;2023-08-17T02:02:04;15.70;99.90
18974;DHT22;9621;48.690;9.466;2023-08-17T02:04:30;15.70;99.90
18974;DHT22;9621;48.690;9.466;2023-08-17T02:06:57;15.70;99.90
18974;DHT22;9621;48.690;9.466;2023-08-17T02:09:24;15.70;99.90
18974;DHT22;9621;48.690;9.466;2023-08-17T02:11:51;15.70;99.90
18974;DHT22;9621;48.690;9.466;2023-08-17T02:14:19;15.70;99.90
18974;DHT22;9621;48.690;9.466;2023-08-17T02:16:46;15.60;99.90
18974;DHT22;9621;48.690;9.466;2023-08-17T02:19:13;15.60;99.90
18974;DHT22;9621;48.690;9.466;2023-08-17T02:21:40;15.60;99.90
18974;DHT22;9621;48.690;9.466;2023-08-17T02:24:07;15.60;99.90
18974;DHT22;9621;48.690;9.466;2023-08-17T02:26:33;15.60;99.90
18974;DHT22;9621;48.690;9.466;2023-08-17T02:29:00;15.60;99.90
18974;DHT22;9621;48.690;9.466;2023-08-17T02:31:28;15.60;99.90
18974;DHT22;9621;48.690;9.466;2023-08-17T02:33:55;15.60;99.90
18974;DHT22;9621;48.690;9.466;2023-08-17T02:36:26;15.50;99.90
18974;DHT22;9621;48.690;9.466;2023-08-17T02:38:52;15.50;99.90
18974;DHT22;9621;48.690;9.466;2023-08-17T02:41:19;15.50;99.90
18974;DHT22;9621;48.690;9.466;2023-08-17T02:43:46;15.40;99.90
18974;DHT22;9621;48.690;9.466;2023-08-17T02:46:13;15.40;99.90
18974;DHT22;9621;48.690;9.466;2023-08-17T02:48:42;15.30;99.90
18974;DHT22;9621;48.690;9.466;2023-08-17T02:51:08;15.30;99.90
18974;DHT22;9621;48.690;9.466;2023-08-17T02:53:35;15.30;99.90
18974;DHT22;9621;48.690;9.466;2023-08-17T02:56:02;15.40;99.90
18974;DHT22;9621;48.690;9.466;2023-08-17T02:58:29;15.40;99.90
18974;DHT22;9621;48.690;9.466;2023-08-17T03:00:56;15.40;99.90
18974;DHT22;9621;48.690;9.466;2023-08-17T03:03:23;15.50;99.90
18974;DHT22;9621;48.690;9.466;2023-08-17T03:05:51;15.50;99.90
18974;DHT22;9621;48.690;9.466;2023-08-17T03:08:18;15.60;99.90
18974;DHT22;9621;48.690;9.466;2023-08-17T03:10:45;15.60;99.90
18974;DHT22;9621;48.690;9.466;2023-08-17T03:13:12;15.70;99.90
18974;DHT22;9621;48.690;9.466;2023-08-17T03:15:39;15.70;99.90
18974;DHT22;9621;48.690;9.466;2023-08-17T03:18:05;15.80;99.90
18974;DHT22;9621;48.690;9.466;2023-08-17T03:20:32;15.80;99.90
18974;DHT22;9621;48.690;9.466;2023-08-17T03:23:01;15.80;99.90
18974;DHT22;9621;48.690;9.466;2023-08-17T03:25:28;15.90;99.90
18974;DHT22;9621;48.690;9.466;2023-08-17T03:27:54;15.90;99.90
18974;DHT22;9621;48.690;9.466;2023-08-17T03:30:21;16.00;99.90
18974;DHT22;9621;48.690;9.466;2023-08-17T03:32:48;16.00;99.90
18974;DHT22;9621;48.690;9.466;2023-08-17T03:35:15;16.10;99.90
18974;DHT22;9621;48.690;9.466;2023-08-17T03:37:42;16.10;99.90
18974;DHT22;9621;48.690;9.466;2023-08-17T03:40:10;16.20;99.90
18974;DHT22;9621;48.690;9.466;2023-08-17T03:42:37;16.20;99.90
18974;DHT22;9621;48.690;9.466;2023-08-17T03:45:05;16.20;99.90
18974;DHT22;9621;48.690;9.466;2023-08-17T03:47:32;16.30;99.90
18974;DHT22;9621;48.690;9.466;2023-08-17T03:49:59;16.30;99.90
18974;DHT22;9621;48.690;9.466;2023-08-17T03:52:25;16.30;99.90
18974;DHT22;9621;48.690;9.466;2023-08-17T03:54:52;16.40;99.90
18974;DHT22;9621;48.690;9.466;2023-08-17T03:57:20;16.40;99.90
18974;DHT22;9621;48.690;9.466;2023-08-17T03:59:47;16.40;99.90
18974;DHT22;9621;48.690;9.466;2023-08-17T04:02:14;16.50;99.90
18974;DHT22;9621;48.690;9.466;2023-08-17T04:04:41;16.50;99.90
18974;DHT22;9621;48.690;9.466;2023-08-17T04:07:08;16.60;99.90
18974;DHT22;9621;48.690;9.466;2023-08-17T04:09:35;16.60;99.90
18974;DHT22;9621;48.690;9.466;2023-08-17T04:12:02;16.60;99.90
18974;DHT22;9621;48.690;9.466;2023-08-17T04:14:31;16.70;99.90
18974;DHT22;9621;48.690;9.466;2023-08-17T04:16:58;16.70;99.90
18974;DHT22;9621;48.690;9.466;2023-08-17T04:19:25;16.80;99.90
18974;DHT22;9621;48.690;9.466;2023-08-17T04:21:52;16.80;99.90
18974;DHT22;9621;48.690;9.466;2023-08-17T04:24:19;16.80;99.90
18974;DHT22;9621;48.690;9.466;2023-08-17T04:26:46;16.80;99.90
18974;DHT22;9621;48.690;9.466;2023-08-17T04:29:13;16.90;99.90
18974;DHT22;9621;48.690;9.466;2023-08-17T04:31:41;16.90;99.90
18974;DHT22;9621;48.690;9.466;2023-08-17T04:34:08;16.90;99.90
18974;DHT22;9621;48.690;9.466;2023-08-17T04:36:35;16.90;99.90
18974;DHT22;9621;48.690;9.466;2023-08-17T04:39:02;16.90;99.90
18974;DHT22;9621;48.690;9.466;2023-08-17T04:41:29;16.90;99.90
18974;DHT22;9621;48.690;9.466;2023-08-17T04:43:56;16.90;99.90
18974;DHT22;9621;48.690;9.466;2023-08-17T04:46:23;16.90;99.90
18974;DHT22;9621;48.690;9.466;2023-08-17T04:48:55;16.90;99.90
18974;DHT22;9621;48.690;9.466;2023-08-17T04:51:22;17.00;99.90
18974;DHT22;9621;48.690;9.466;2023-08-17T04:53:49;17.00;99.90
18974;DHT22;9621;48.690;9.466;2023-08-17T04:56:15;17.00;99.90
18974;DHT22;9621;48.690;9.466;2023-08-17T04:58:42;17.00;99.90
18974;DHT22;9621;48.690;9.466;2023-08-17T05:01:09;17.10;99.90
18974;DHT22;9621;48.690;9.466;2023-08-17T05:03:36;17.10;99.90
18974;DHT22;9621;48.690;9.466;2023-08-17T05:06:05;17.20;99.90
18974;DHT22;9621;48.690;9.466;2023-08-17T05:08:31;17.20;99.90
18974;DHT22;9621;48.690;9.466;2023-08-17T05:10:58;17.20;99.90
18974;DHT22;9621;48.690;9.466;2023-08-17T05:13:25;17.30;99.90
18974;DHT22;9621;48.690;9.466;2023-08-17T05:15:52;17.30;99.90
18974;DHT22;9621;48.690;9.466;2023-08-17T05:18:19;17.40;99.90
18974;DHT22;9621;48.690;9.466;2023-08-17T05:20:46;17.50;99.90
18974;DHT22;9621;48.690;9.466;2023-08-17T05:23:14;17.50;99.90
18974;DHT22;9621;48.690;9.466;2023-08-17T05:25:41;17.60;99.90
18974;DHT22;9621;48.690;9.466;2023-08-17T05:28:08;17.60;99.90
18974;DHT22;9621;48.690;9.466;2023-08-17T05:30:34;17.60;99.90
18974;DHT22;9621;48.690;9.466;2023-08-17T05:33:01;17.70;99.90
18974;DHT22;9621;48.690;9.466;2023-08-17T05:35:28;17.70;99.90
18974;DHT22;9621;48.690;9.466;2023-08-17T05:37:55;17.70;99.90
18974;DHT22;9621;48.690;9.466;2023-08-17T05:40:23;17.60;99.90
18974;DHT22;9621;48.690;9.466;2023-08-17T05:42:50;17.70;99.90
18974;DHT22;9621;48.690;9.466;2023-08-17T05:45:17;17.70;99.90
18974;DHT22;9621;48.690;9.466;2023-08-17T05:47:44;17.80;99.90
18974;DHT22;9621;48.690;9.466;2023-08-17T05:50:11;17.80;99.90
18974;DHT22;9621;48.690;9.466;2023-08-17T05:52:38;17.90;99.90
18974;DHT22;9621;48.690;9.466;2023-08-17T05:55:05;17.90;99.90
18974;DHT22;9621;48.690;9.466;2023-08-17T05:57:33;18.10;99.90
18974;DHT22;9621;48.690;9.466;2023-08-17T06:00:00;18.10;99.90
18974;DHT22;9621;48.690;9.466;2023-08-17T06:02:28;18.20;99.90
18974;DHT22;9621;48.690;9.466;2023-08-17T06:04:54;18.30;99.90
18974;DHT22;9621;48.690;9.466;2023-08-17T06:07:21;18.40;99.90
18974;DHT22;9621;48.690;9.466;2023-08-17T06:09:48;18.40;99.90
18974;DHT22;9621;48.690;9.466;2023-08-17T06:12:21;18.50;99.90
18974;DHT22;9621;48.690;9.466;2023-08-17T06:14:49;18.50;99.90
18974;DHT22;9621;48.690;9.466;2023-08-17T06:17:16;18.60;99.90
18974;DHT22;9621;48.690;9.466;2023-08-17T06:19:43;18.70;99.90
18974;DHT22;9621;48.690;9.466;2023-08-17T06:22:09;18.80;99.90
18974;DHT22;9621;48.690;9.466;2023-08-17T06:24:37;18.80;99.90
18974;DHT22;9621;48.690;9.466;2023-08-17T06:27:04;18.80;99.90
18974;DHT22;9621;48.690;9.466;2023-08-17T06:29:31;18.80;99.90
18974;DHT22;9621;48.690;9.466;2023-08-17T06:31:59;18.90;99.90
18974;DHT22;9621;48.690;9.466;2023-08-17T06:34:26;18.90;99.90
18974;DHT22;9621;48.690;9.466;2023-08-17T06:37:01;18.90;99.90
18974;DHT22;9621;48.690;9.466;2023-08-17T06:39:28;19.00;99.90
18974;DHT22;9621;48.690;9.466;2023-08-17T06:41:55;19.10;99.90
18974;DHT22;9621;48.690;9.466;2023-08-17T06:44:22;19.10;99.90
18974;DHT22;9621;48.690;9.466;2023-08-17T06:46:48;19.20;99.90
18974;DHT22;9621;48.690;9.466;2023-08-17T06:49:17;19.30;99.90
18974;DHT22;9621;48.690;9.466;2023-08-17T06:51:43;19.40;99.90
18974;DHT22;9621;48.690;9.466;2023-08-17T06:54:10;19.50;99.90
18974;DHT22;9621;48.690;9.466;2023-08-17T06:56:37;19.60;99.90
18974;DHT22;9621;48.690;9.466;2023-08-17T06:59:04;19.60;99.90
18974;DHT22;9621;48.690;9.466;2023-08-17T07:01:32;19.80;99.90
18974;DHT22;9621;48.690;9.466;2023-08-17T07:03:59;19.80;99.90
18974;DHT22;9621;48.690;9.466;2023-08-17T07:06:27;19.90;99.90
18974;DHT22;9621;48.690;9.466;2023-08-17T07:08:54;19.90;99.90
18974;DHT22;9621;48.690;9.466;2023-08-17T07:11:22;19.90;99.90
18974;DHT22;9621;48.690;9.466;2023-08-17T07:13:49;20.00;99.90
18974;DHT22;9621;48.690;9.466;2023-08-17T07:16:16;20.00;99.90
18974;DHT22;9621;48.690;9.466;2023-08-17T07:18:42;20.00;99.90
18974;DHT22;9621;48.690;9.466;2023-08-17T07:21:10;20.20;99.90
18974;DHT22;9621;48.690;9.466;2023-08-17T07:23:38;20.20;99.90
18974;DHT22;9621;48.690;9.466;2023-08-17T07:26:04;20.40;99.90
18974;DHT22;9621;48.690;9.466;2023-08-17T07:28:31;20.40;99.90
18974;DHT22;9621;48.690;9.466;2023-08-17T07:30:58;20.60;99.90
18974;DHT22;9621;48.690;9.466;2023-08-17T07:33:25;20.70;99.90
18974;DHT22;9621;48.690;9.466;2023-08-17T07:35:52;20.70;99.90
18974;DHT22;9621;48.690;9.466;2023-08-17T07:38:21;20.90;99.90
18974;DHT22;9621;48.690;9.466;2023-08-17T07:40:49;20.90;99.90
18974;DHT22;9621;48.690;9.466;2023-08-17T07:43:16;21.00;99.90
18974;DHT22;9621;48.690;9.466;2023-08-17T07:45:43;21.10;99.90
18974;DHT22;9621;48.690;9.466;2023-08-17T07:48:10;21.20;99.90
18974;DHT22;9621;48.690;9.466;2023-08-17T07:50:37;21.30;99.90
18974;DHT22;9621;48.690;9.466;2023-08-17T07:53:04;21.40;99.90
18974;DHT22;9621;48.690;9.466;2023-08-17T07:55:31;21.50;99.90
18974;DHT22;9621;48.690;9.466;2023-08-17T07:57:59;21.70;99.90
18974;DHT22;9621;48.690;9.466;2023-08-17T08:00:26;21.80;99.90
18974;DHT22;9621;48.690;9.466;2023-08-17T08:02:53;21.90;99.90
18974;DHT22;9621;48.690;9.466;2023-08-17T08:05:20;22.00;99.90
18974;DHT22;9621;48.690;9.466;2023-08-17T08:07:47;22.10;99.90
18974;DHT22;9621;48.690;9.466;2023-08-17T08:10:13;22.20;99.90
18974;DHT22;9621;48.690;9.466;2023-08-17T08:12:40;22.30;99.90
18974;DHT22;9621;48.690;9.466;2023-08-17T08:15:09;22.50;99.90
18974;DHT22;9621;48.690;9.466;2023-08-17T08:17:36;22.70;99.90
18974;DHT22;9621;48.690;9.466;2023-08-17T08:20:04;22.90;99.90
18974;DHT22;9621;48.690;9.466;2023-08-17T08:22:31;23.00;99.90
18974;DHT22;9621;48.690;9.466;2023-08-17T08:24:58;23.10;99.90
18974;DHT22;9621;48.690;9.466;2023-08-17T08:27:25;23.30;99.90
18974;DHT22;9621;48.690;9.466;2023-08-17T08:29:52;23.50;99.90
18974;DHT22;9621;48.690;9.466;2023-08-17T08:32:20;23.70;99.90
18974;DHT22;9621;48.690;9.466;2023-08-17T08:34:47;23.80;99.90
18974;DHT22;9621;48.690;9.466;2023-08-17T08:37:14;23.90;99.90
18974;DHT22;9621;48.690;9.466;2023-08-17T08:39:51;24.00;99.90
18974;DHT22;9621;48.690;9.466;2023-08-17T08:42:18;24.20;99.90
18974;DHT22;9621;48.690;9.466;2023-08-17T08:44:46;24.40;99.90
18974;DHT22;9621;48.690;9.466;2023-08-17T08:47:13;24.90;99.90
18974;DHT22;9621;48.690;9.466;2023-08-17T08:49:50;25.60;99.90
18974;DHT22;9621;48.690;9.466;2023-08-17T08:52:23;26.40;99.90
18974;DHT22;9621;48.690;9.466;2023-08-17T08:54:54;27.10;99.90
18974;DHT22;9621;48.690;9.466;2023-08-17T08:57:23;27.80;99.90
18974;DHT22;9621;48.690;9.466;2023-08-17T08:59:51;28.40;99.90
18974;DHT22;9621;48.690;9.466;2023-08-17T09:02:18;28.90;99.90
18974;DHT22;9621;48.690;9.466;2023-08-17T09:04:46;29.30;99.90
18974;DHT22;9621;48.690;9.466;2023-08-17T09:07:13;29.70;99.30
18974;DHT22;9621;48.690;9.466;2023-08-17T09:09:40;29.90;98.60
18974;DHT22;9621;48.690;9.466;2023-08-17T09:12:08;30.30;97.60
18974;DHT22;9621;48.690;9.466;2023-08-17T09:14:36;30.50;96.30
18974;DHT22;9621;48.690;9.466;2023-08-17T09:17:03;30.70;95.30
18974;DHT22;9621;48.690;9.466;2023-08-17T09:19:31;30.80;94.50
18974;DHT22;9621;48.690;9.466;2023-08-17T09:22:00;30.90;93.40
18974;DHT22;9621;48.690;9.466;2023-08-17T09:24:33;31.00;92.40
18974;DHT22;9621;48.690;9.466;2023-08-17T09:27:01;31.00;91.50
18974;DHT22;9621;48.690;9.466;2023-08-17T09:29:27;31.10;91.60
18974;DHT22;9621;48.690;9.466;2023-08-17T09:31:57;31.10;91.00
18974;DHT22;9621;48.690;9.466;2023-08-17T09:34:24;31.10;90.40
18974;DHT22;9621;48.690;9.466;2023-08-17T09:36:51;31.10;90.00
18974;DHT22;9621;48.690;9.466;2023-08-17T09:39:19;31.20;89.00
18974;DHT22;9621;48.690;9.466;2023-08-17T09:41:46;31.20;88.20
18974;DHT22;9621;48.690;9.466;2023-08-17T09:44:13;31.20;88.00
18974;DHT22;9621;48.690;9.466;2023-08-17T09:46:43;31.20;86.20
18974;DHT22;9621;48.690;9.466;2023-08-17T09:49:10;31.10;84.80
18974;DHT22;9621;48.690;9.466;2023-08-17T09:51:37;30.90;86.10
18974;DHT22;9621;48.690;9.466;2023-08-17T09:54:04;30.70;86.10
18974;DHT22;9621;48.690;9.466;2023-08-17T09:56:33;30.50;86.60
18974;DHT22;9621;48.690;9.466;2023-08-17T09:59:00;30.40;85.70
18974;DHT22;9621;48.690;9.466;2023-08-17T10:01:29;30.40;86.30
18974;DHT22;9621;48.690;9.466;2023-08-17T10:03:58;30.40;85.40
18974;DHT22;9621;48.690;9.466;2023-08-17T10:06:26;30.50;86.10
18974;DHT22;9621;48.690;9.466;2023-08-17T10:08:56;30.50;86.70
18974;DHT22;9621;48.690;9.466;2023-08-17T10:11:26;30.70;86.40
18974;DHT22;9621;48.690;9.466;2023-08-17T10:14:00;30.90;85.40
18974;DHT22;9621;48.690;9.466;2023-08-17T10:16:38;31.10;83.70
18974;DHT22;9621;48.690;9.466;2023-08-17T10:19:13;31.30;81.90
18974;DHT22;9621;48.690;9.466;2023-08-17T10:21:48;31.40;82.00
18974;DHT22;9621;48.690;9.466;2023-08-17T10:24:17;31.50;80.50
18974;DHT22;9621;48.690;9.466;2023-08-17T10:26:45;31.60;81.40
18974;DHT22;9621;48.690;9.466;2023-08-17T10:29:16;31.70;81.40
18974;DHT22;9621;48.690;9.466;2023-08-17T10:31:44;31.80;79.80
18974;DHT22;9621;48.690;9.466;2023-08-17T10:34:12;32.00;78.20
18974;DHT22;9621;48.690;9.466;2023-08-17T10:36:40;32.00;78.20
18974;DHT22;9621;48.690;9.466;2023-08-17T10:39:24;32.00;78.20
18974;DHT22;9621;48.690;9.466;2023-08-17T10:41:52;32.20;78.10
18974;DHT22;9621;48.690;9.466;2023-08-17T10:44:42;32.30;76.60
18974;DHT22;9621;48.690;9.466;2023-08-17T10:47:19;32.40;75.60
18974;DHT22;9621;48.690;9.466;2023-08-17T10:49:50;32.50;75.00
18974;DHT22;9621;48.690;9.466;2023-08-17T10:52:28;32.60;76.30
18974;DHT22;9621;48.690;9.466;2023-08-17T10:54:55;32.90;74.30
18974;DHT22;9621;48.690;9.466;2023-08-17T10:57:28;33.20;75.00
18974;DHT22;9621;48.690;9.466;2023-08-17T11:00:07;33.40;71.70
18974;DHT22;9621;48.690;9.466;2023-08-17T11:02:37;33.60;72.50
18974;DHT22;9621;48.690;9.466;2023-08-17T11:05:04;33.80;73.10
18974;DHT22;9621;48.690;9.466;2023-08-17T11:07:39;33.80;71.30
18974;DHT22;9621;48.690;9.466;2023-08-17T11:10:11;33.90;71.40
18974;DHT22;9621;48.690;9.466;2023-08-17T11:12:40;34.10;69.60
18974;DHT22;9621;48.690;9.466;2023-08-17T11:15:10;34.20;69.50
18974;DHT22;9621;48.690;9.466;2023-08-17T11:17:37;34.30;67.70
18974;DHT22;9621;48.690;9.466;2023-08-17T11:20:05;34.40;68.40
18974;DHT22;9621;48.690;9.466;2023-08-17T11:22:34;34.50;68.60
18974;DHT22;9621;48.690;9.466;2023-08-17T11:25:01;34.60;67.80
18974;DHT22;9621;48.690;9.466;2023-08-17T11:27:30;34.70;67.20
18974;DHT22;9621;48.690;9.466;2023-08-17T11:29:57;34.80;66.20
18974;DHT22;9621;48.690;9.466;2023-08-17T11:32:26;34.90;65.50
18974;DHT22;9621;48.690;9.466;2023-08-17T11:34:52;35.00;64.60
18974;DHT22;9621;48.690;9.466;2023-08-17T11:37:20;35.00;64.80
18974;DHT22;9621;48.690;9.466;2023-08-17T11:39:49;35.00;63.90
18974;DHT22;9621;48.690;9.466;2023-08-17T11:42:16;35.00;64.20
18974;DHT22;9621;48.690;9.466;2023-08-17T11:44:43;34.90;63.00
18974;DHT22;9621;48.690;9.466;2023-08-17T11:47:10;34.80;62.70
18974;DHT22;9621;48.690;9.466;2023-08-17T11:49:38;34.80;63.20
18974;DHT22;9621;48.690;9.466;2023-08-17T11:52:08;34.70;63.40
18974;DHT22;9621;48.690;9.466;2023-08-17T11:54:40;34.70;62.70
18974;DHT22;9621;48.690;9.466;2023-08-17T11:57:07;34.80;61.80
18974;DHT22;9621;48.690;9.466;2023-08-17T11:59:33;34.70;60.60
18974;DHT22;9621;48.690;9.466;2023-08-17T12:02:01;34.60;61.70
18974;DHT22;9621;48.690;9.466;2023-08-17T12:04:28;34.50;62.20
18974;DHT22;9621;48.690;9.466;2023-08-17T12:06:56;34.30;63.60
18974;DHT22;9621;48.690;9.466;2023-08-17T12:09:23;34.10;64.40
18974;DHT22;9621;48.690;9.466;2023-08-17T12:11:58;33.90;63.40
18974;DHT22;9621;48.690;9.466;2023-08-17T12:14:26;33.60;63.50
18974;DHT22;9621;48.690;9.466;2023-08-17T12:16:54;33.40;64.30
18974;DHT22;9621;48.690;9.466;2023-08-17T12:19:22;33.10;65.00
18974;DHT22;9621;48.690;9.466;2023-08-17T12:21:51;32.80;65.60
18974;DHT22;9621;48.690;9.466;2023-08-17T12:24:19;32.50;66.40
18974;DHT22;9621;48.690;9.466;2023-08-17T12:26:46;32.20;66.60
18974;DHT22;9621;48.690;9.466;2023-08-17T12:29:13;31.90;67.30
18974;DHT22;9621;48.690;9.466;2023-08-17T12:31:40;31.50;68.30
18974;DHT22;9621;48.690;9.466;2023-08-17T12:34:07;31.10;68.60
18974;DHT22;9621;48.690;9.466;2023-08-17T12:36:34;30.90;69.70
18974;DHT22;9621;48.690;9.466;2023-08-17T12:39:03;30.50;70.30
18974;DHT22;9621;48.690;9.466;2023-08-17T12:41:32;30.10;71.00
18974;DHT22;9621;48.690;9.466;2023-08-17T12:43:59;29.80;71.70
18974;DHT22;9621;48.690;9.466;2023-08-17T12:46:27;29.50;72.20
18974;DHT22;9621;48.690;9.466;2023-08-17T12:48:58;29.30;72.70
18974;DHT22;9621;48.690;9.466;2023-08-17T12:51:25;29.00;74.20
18974;DHT22;9621;48.690;9.466;2023-08-17T12:53:51;28.80;74.40
18974;DHT22;9621;48.690;9.466;2023-08-17T12:56:18;28.50;74.80
18974;DHT22;9621;48.690;9.466;2023-08-17T12:58:46;28.30;74.90
18974;DHT22;9621;48.690;9.466;2023-08-17T13:01:13;28.10;75.50
18974;DHT22;9621;48.690;9.466;2023-08-17T13:03:40;28.00;75.90
18974;DHT22;9621;48.690;9.466;2023-08-17T13:06:07;27.80;76.50
18974;DHT22;9621;48.690;9.466;2023-08-17T13:08:34;27.60;77.10
18974;DHT22;9621;48.690;9.466;2023-08-17T13:11:01;27.40;78.10
18974;DHT22;9621;48.690;9.466;2023-08-17T13:13:28;27.20;78.60
18974;DHT22;9621;48.690;9.466;2023-08-17T13:15:56;27.10;79.30
18974;DHT22;9621;48.690;9.466;2023-08-17T13:18:23;26.90;80.20
18974;DHT22;9621;48.690;9.466;2023-08-17T13:20:50;26.80;80.50
18974;DHT22;9621;48.690;9.466;2023-08-17T13:23:17;26.60;81.20
18974;DHT22;9621;48.690;9.466;2023-08-17T13:25:44;26.50;81.50
18974;DHT22;9621;48.690;9.466;2023-08-17T13:28:11;26.40;81.90
18974;DHT22;9621;48.690;9.466;2023-08-17T13:30:38;26.30;82.80
18974;DHT22;9621;48.690;9.466;2023-08-17T13:33:06;26.20;82.90
18974;DHT22;9621;48.690;9.466;2023-08-17T13:35:33;26.00;84.00
18974;DHT22;9621;48.690;9.466;2023-08-17T13:38:00;25.90;84.60
18974;DHT22;9621;48.690;9.466;2023-08-17T13:40:29;25.80;85.50
18974;DHT22;9621;48.690;9.466;2023-08-17T13:42:56;25.70;86.00
18974;DHT22;9621;48.690;9.466;2023-08-17T13:45:24;25.60;86.70
18974;DHT22;9621;48.690;9.466;2023-08-17T13:47:51;25.50;87.80
18974;DHT22;9621;48.690;9.466;2023-08-17T13:50:19;25.40;88.30
18974;DHT22;9621;48.690;9.466;2023-08-17T13:52:46;25.30;89.20
18974;DHT22;9621;48.690;9.466;2023-08-17T13:55:13;25.20;89.40
18974;DHT22;9621;48.690;9.466;2023-08-17T13:57:40;25.10;89.90
18974;DHT22;9621;48.690;9.466;2023-08-17T14:00:08;25.10;90.20
18974;DHT22;9621;48.690;9.466;2023-08-17T14:02:35;25.00;90.40
18974;DHT22;9621;48.690;9.466;2023-08-17T14:05:02;25.00;90.70
18974;DHT22;9621;48.690;9.466;2023-08-17T14:07:31;24.90;90.90
18974;DHT22;9621;48.690;9.466;2023-08-17T14:09:58;24.70;91.10
18974;DHT22;9621;48.690;9.466;2023-08-17T14:12:24;24.60;91.20
18974;DHT22;9621;48.690;9.466;2023-08-17T14:14:51;24.50;91.60
18974;DHT22;9621;48.690;9.466;2023-08-17T14:17:18;24.40;91.90
18974;DHT22;9621;48.690;9.466;2023-08-17T14:19:45;24.30;91.90
18974;DHT22;9621;48.690;9.466;2023-08-17T14:22:12;24.20;92.20
18974;DHT22;9621;48.690;9.466;2023-08-17T14:24:40;24.30;92.40
18974;DHT22;9621;48.690;9.466;2023-08-17T14:27:07;24.30;92.90
18974;DHT22;9621;48.690;9.466;2023-08-17T14:29:34;24.40;93.20
18974;DHT22;9621;48.690;9.466;2023-08-17T14:32:00;24.40;93.70
18974;DHT22;9621;48.690;9.466;2023-08-17T14:34:27;24.40;93.80
18974;DHT22;9621;48.690;9.466;2023-08-17T14:36:55;24.40;94.10
18974;DHT22;9621;48.690;9.466;2023-08-17T14:39:22;24.30;94.00
18974;DHT22;9621;48.690;9.466;2023-08-17T14:41:50;24.30;94.20
18974;DHT22;9621;48.690;9.466;2023-08-17T14:44:18;24.30;94.40
18974;DHT22;9621;48.690;9.466;2023-08-17T14:46:45;24.20;94.50
18974;DHT22;9621;48.690;9.466;2023-08-17T14:49:11;24.10;94.70
18974;DHT22;9621;48.690;9.466;2023-08-17T14:51:39;24.10;94.80
18974;DHT22;9621;48.690;9.466;2023-08-17T14:54:06;24.10;94.90
18974;DHT22;9621;48.690;9.466;2023-08-17T14:56:33;24.10;95.20
18974;DHT22;9621;48.690;9.466;2023-08-17T14:59:02;24.10;95.20
18974;DHT22;9621;48.690;9.466;2023-08-17T15:01:28;24.10;95.70
18974;DHT22;9621;48.690;9.466;2023-08-17T15:03:56;24.00;95.80
18974;DHT22;9621;48.690;9.466;2023-08-17T15:06:23;24.00;95.90
18974;DHT22;9621;48.690;9.466;2023-08-17T15:08:50;24.00;96.00
18974;DHT22;9621;48.690;9.466;2023-08-17T15:11:17;23.90;96.00
18974;DHT22;9621;48.690;9.466;2023-08-17T15:13:44;23.90;96.00
18974;DHT22;9621;48.690;9.466;2023-08-17T15:16:12;23.90;96.20
18974;DHT22;9621;48.690;9.466;2023-08-17T15:18:39;23.90;96.50
18974;DHT22;9621;48.690;9.466;2023-08-17T15:21:06;23.80;96.60
18974;DHT22;9621;48.690;9.466;2023-08-17T15:23:33;23.80;96.60
18974;DHT22;9621;48.690;9.466;2023-08-17T15:25:59;23.80;96.70
18974;DHT22;9621;48.690;9.466;2023-08-17T15:28:26;23.80;96.90
18974;DHT22;9621;48.690;9.466;2023-08-17T15:31:01;23.80;97.10
18974;DHT22;9621;48.690;9.466;2023-08-17T15:33:29;23.80;97.50
18974;DHT22;9621;48.690;9.466;2023-08-17T15:35:56;23.70;97.60
18974;DHT22;9621;48.690;9.466;2023-08-17T15:38:23;23.70;97.70
18974;DHT22;9621;48.690;9.466;2023-08-17T15:40:50;23.60;97.80
18974;DHT22;9621;48.690;9.466;2023-08-17T15:43:17;23.60;98.00
18974;DHT22;9621;48.690;9.466;2023-08-17T15:45:44;23.60;98.10
18974;DHT22;9621;48.690;9.466;2023-08-17T15:48:11;23.70;98.40